N3475M KELP-KTUS
Flight info
| Callsign | N3475M |
|---|---|
| Flight time | 1h 54m |
| Altitude | 12000 |
| Route | HANCH V16 CUS T306 NOCHI TUS081032 TUS |
| Aircraft | BE36/L-BDFGLORY/S |
Departure
| Time | 2026-04-29 13:23 |
|---|---|
| Airport | El Paso International Airport (KELP) |
Arrival
| Time | 2026-04-29 15:17 |
|---|---|
| Airport | Tucson International Airport (KTUS) |
| Time | Latitude | Longitude | Altitude | Speed | Heading |
|---|---|---|---|---|---|
| 2026-04-29 13:17 | 31.79764 | -106.37543 | 3948 ft | 0 kts | 260° |
| 2026-04-29 13:19 | 31.79763 | -106.37550 | 3947 ft | 5 kts | 279° |
| 2026-04-29 13:19 | 31.79847 | -106.37581 | 3946 ft | 22 kts | 355° |
| 2026-04-29 13:19 | 31.79888 | -106.37452 | 3948 ft | 22 kts | 92° |
| 2026-04-29 13:20 | 31.79885 | -106.37264 | 3953 ft | 23 kts | 88° |
| 2026-04-29 13:20 | 31.79936 | -106.37096 | 3954 ft | 23 kts | 65° |
| 2026-04-29 13:20 | 31.79944 | -106.36894 | 3956 ft | 27 kts | 95° |
| 2026-04-29 13:20 | 31.79932 | -106.36657 | 3959 ft | 30 kts | 95° |
| 2026-04-29 13:21 | 31.79920 | -106.36434 | 3960 ft | 27 kts | 92° |
| 2026-04-29 13:21 | 31.80007 | -106.36319 | 3961 ft | 19 kts | 356° |
| 2026-04-29 13:21 | 31.80088 | -106.36375 | 3962 ft | 13 kts | 278° |
| 2026-04-29 13:21 | 31.80089 | -106.36402 | 3962 ft | 1 kts | 268° |
| 2026-04-29 13:22 | 31.80088 | -106.36430 | 3961 ft | 12 kts | 270° |
| 2026-04-29 13:22 | 31.80104 | -106.36823 | 3953 ft | 78 kts | 274° |
| 2026-04-29 13:22 | 31.80133 | -106.37552 | 4098 ft | 94 kts | 275° |
| 2026-04-29 13:22 | 31.80124 | -106.38335 | 4357 ft | 100 kts | 264° |
| 2026-04-29 13:23 | 31.80127 | -106.39163 | 4589 ft | 104 kts | 275° |
| 2026-04-29 13:23 | 31.80158 | -106.40041 | 4805 ft | 109 kts | 273° |
| 2026-04-29 13:23 | 31.80198 | -106.40943 | 4998 ft | 114 kts | 273° |
| 2026-04-29 13:23 | 31.80242 | -106.41887 | 5181 ft | 118 kts | 273° |
| 2026-04-29 13:24 | 31.80287 | -106.42877 | 5387 ft | 120 kts | 269° |
| 2026-04-29 13:24 | 31.80042 | -106.43799 | 5590 ft | 121 kts | 248° |
| 2026-04-29 13:24 | 31.79712 | -106.44702 | 5781 ft | 121 kts | 249° |
| 2026-04-29 13:24 | 31.79373 | -106.45616 | 5982 ft | 120 kts | 249° |
| 2026-04-29 13:25 | 31.79039 | -106.46513 | 6176 ft | 119 kts | 249° |
| 2026-04-29 13:25 | 31.78690 | -106.48317 | 6558 ft | 112 kts | 274° |
| 2026-04-29 13:25 | 31.78786 | -106.49220 | 6739 ft | 111 kts | 277° |
| 2026-04-29 13:26 | 31.78884 | -106.50102 | 6965 ft | 106 kts | 277° |
| 2026-04-29 13:26 | 31.78979 | -106.50905 | 7175 ft | 100 kts | 277° |
| 2026-04-29 13:26 | 31.79076 | -106.51692 | 7391 ft | 96 kts | 277° |
| 2026-04-29 13:26 | 31.79181 | -106.52464 | 7620 ft | 98 kts | 277° |
| 2026-04-29 13:27 | 31.79295 | -106.53259 | 7857 ft | 97 kts | 277° |
| 2026-04-29 13:27 | 31.79417 | -106.54034 | 8090 ft | 95 kts | 278° |
| 2026-04-29 13:27 | 31.79542 | -106.54790 | 8322 ft | 93 kts | 278° |
| 2026-04-29 13:27 | 31.79658 | -106.55545 | 8554 ft | 96 kts | 277° |
| 2026-04-29 13:28 | 31.79783 | -106.56335 | 8742 ft | 99 kts | 277° |
| 2026-04-29 13:28 | 31.79916 | -106.57141 | 8931 ft | 101 kts | 277° |
| 2026-04-29 13:28 | 31.80014 | -106.57956 | 9118 ft | 101 kts | 270° |
| 2026-04-29 13:28 | 31.80069 | -106.58769 | 9304 ft | 101 kts | 271° |
| 2026-04-29 13:29 | 31.80134 | -106.59585 | 9490 ft | 100 kts | 272° |
| 2026-04-29 13:29 | 31.80203 | -106.60404 | 9678 ft | 101 kts | 272° |
| 2026-04-29 13:29 | 31.80274 | -106.61225 | 9866 ft | 101 kts | 272° |
| 2026-04-29 13:29 | 31.80323 | -106.61767 | 9992 ft | 100 kts | 272° |
| 2026-04-29 13:30 | 31.80421 | -106.62853 | 10209 ft | 98 kts | 272° |
| 2026-04-29 13:30 | 31.80492 | -106.63641 | 10373 ft | 96 kts | 271° |
| 2026-04-29 13:30 | 31.80538 | -106.64154 | 10480 ft | 95 kts | 272° |
| 2026-04-29 13:30 | 31.80605 | -106.64924 | 10644 ft | 95 kts | 272° |
| 2026-04-29 13:31 | 31.80675 | -106.65704 | 10807 ft | 96 kts | 272° |
| 2026-04-29 13:31 | 31.80767 | -106.66738 | 11028 ft | 96 kts | 271° |
| 2026-04-29 13:31 | 31.80813 | -106.67260 | 11142 ft | 96 kts | 272° |
| 2026-04-29 13:31 | 31.80881 | -106.68015 | 11375 ft | 90 kts | 271° |
| 2026-04-29 13:32 | 31.80943 | -106.68726 | 11604 ft | 85 kts | 271° |
| 2026-04-29 13:32 | 31.81004 | -106.69406 | 11834 ft | 82 kts | 271° |
| 2026-04-29 13:32 | 31.81063 | -106.70071 | 12036 ft | 83 kts | 271° |
| 2026-04-29 13:32 | 31.81128 | -106.70805 | 12052 ft | 98 kts | 272° |
| 2026-04-29 13:33 | 31.81204 | -106.71648 | 12058 ft | 109 kts | 272° |
| 2026-04-29 13:33 | 31.81285 | -106.72564 | 12055 ft | 116 kts | 272° |
| 2026-04-29 13:33 | 31.81372 | -106.73525 | 12057 ft | 120 kts | 272° |
| 2026-04-29 13:33 | 31.81460 | -106.74517 | 12057 ft | 124 kts | 272° |
| 2026-04-29 13:34 | 31.81550 | -106.75543 | 12055 ft | 127 kts | 272° |
| 2026-04-29 13:34 | 31.81643 | -106.76589 | 12055 ft | 129 kts | 272° |
| 2026-04-29 13:34 | 31.81735 | -106.77634 | 12055 ft | 130 kts | 272° |
| 2026-04-29 13:34 | 31.81828 | -106.78696 | 12048 ft | 130 kts | 272° |
| 2026-04-29 13:35 | 31.81920 | -106.79733 | 12043 ft | 128 kts | 272° |
| 2026-04-29 13:35 | 31.82012 | -106.80779 | 12036 ft | 127 kts | 272° |
| 2026-04-29 13:35 | 31.82104 | -106.81812 | 12030 ft | 127 kts | 272° |
| 2026-04-29 13:35 | 31.82195 | -106.82847 | 12018 ft | 127 kts | 272° |
| 2026-04-29 13:36 | 31.82285 | -106.83878 | 12011 ft | 126 kts | 272° |
| 2026-04-29 13:36 | 31.82375 | -106.84907 | 12004 ft | 126 kts | 272° |
| 2026-04-29 13:36 | 31.82465 | -106.85932 | 11995 ft | 126 kts | 272° |
| 2026-04-29 13:36 | 31.82555 | -106.86955 | 11986 ft | 127 kts | 272° |
| 2026-04-29 13:37 | 31.82646 | -106.87998 | 11982 ft | 128 kts | 272° |
| 2026-04-29 13:37 | 31.82738 | -106.89047 | 11976 ft | 129 kts | 272° |
| 2026-04-29 13:37 | 31.82830 | -106.90099 | 11970 ft | 130 kts | 272° |
| 2026-04-29 13:37 | 31.82922 | -106.91158 | 11960 ft | 130 kts | 272° |
| 2026-04-29 13:38 | 31.83014 | -106.92210 | 11953 ft | 130 kts | 272° |
| 2026-04-29 13:38 | 31.83106 | -106.93273 | 11944 ft | 130 kts | 272° |
| 2026-04-29 13:38 | 31.83198 | -106.94332 | 11934 ft | 130 kts | 272° |
| 2026-04-29 13:38 | 31.83291 | -106.95395 | 11926 ft | 130 kts | 272° |
| 2026-04-29 13:39 | 31.83383 | -106.96453 | 11918 ft | 131 kts | 272° |
| 2026-04-29 13:39 | 31.83475 | -106.97516 | 11910 ft | 131 kts | 272° |
| 2026-04-29 13:39 | 31.83566 | -106.98566 | 11899 ft | 130 kts | 271° |
| 2026-04-29 13:39 | 31.83656 | -106.99620 | 11896 ft | 129 kts | 272° |
| 2026-04-29 13:40 | 31.83749 | -107.00680 | 11883 ft | 131 kts | 272° |
| 2026-04-29 13:40 | 31.83842 | -107.01749 | 11875 ft | 131 kts | 272° |
| 2026-04-29 13:40 | 31.83934 | -107.02819 | 11870 ft | 132 kts | 272° |
| 2026-04-29 13:40 | 31.84027 | -107.03895 | 11863 ft | 132 kts | 272° |
| 2026-04-29 13:41 | 31.84119 | -107.04970 | 11855 ft | 132 kts | 272° |
| 2026-04-29 13:41 | 31.84212 | -107.06043 | 11847 ft | 132 kts | 272° |
| 2026-04-29 13:41 | 31.84303 | -107.07113 | 11839 ft | 132 kts | 272° |
| 2026-04-29 13:41 | 31.84396 | -107.08182 | 11832 ft | 132 kts | 272° |
| 2026-04-29 13:42 | 31.84488 | -107.09258 | 11822 ft | 131 kts | 272° |
| 2026-04-29 13:42 | 31.84579 | -107.10323 | 11812 ft | 131 kts | 272° |
| 2026-04-29 13:42 | 31.84670 | -107.11385 | 11805 ft | 130 kts | 272° |
| 2026-04-29 13:42 | 31.84760 | -107.12441 | 11802 ft | 130 kts | 272° |
| 2026-04-29 13:43 | 31.84851 | -107.13498 | 11804 ft | 130 kts | 272° |
| 2026-04-29 13:43 | 31.84941 | -107.14557 | 11804 ft | 130 kts | 272° |
| 2026-04-29 13:43 | 31.85032 | -107.15614 | 11807 ft | 130 kts | 272° |
| 2026-04-29 13:43 | 31.85120 | -107.16655 | 11808 ft | 130 kts | 272° |
| 2026-04-29 13:44 | 31.85211 | -107.17723 | 11807 ft | 130 kts | 272° |
| 2026-04-29 13:44 | 31.85299 | -107.18768 | 11812 ft | 130 kts | 271° |
| 2026-04-29 13:44 | 31.85390 | -107.19823 | 11813 ft | 130 kts | 271° |
| 2026-04-29 13:44 | 31.85479 | -107.20879 | 11813 ft | 130 kts | 272° |
| 2026-04-29 13:45 | 31.85569 | -107.21938 | 11815 ft | 130 kts | 272° |
| 2026-04-29 13:45 | 31.85659 | -107.22994 | 11812 ft | 131 kts | 272° |
| 2026-04-29 13:45 | 31.85748 | -107.24051 | 11816 ft | 131 kts | 272° |
| 2026-04-29 13:45 | 31.85838 | -107.25122 | 11818 ft | 131 kts | 272° |
| 2026-04-29 13:46 | 31.85929 | -107.26198 | 11822 ft | 132 kts | 271° |
| 2026-04-29 13:46 | 31.86019 | -107.27264 | 11822 ft | 131 kts | 271° |
| 2026-04-29 13:46 | 31.86110 | -107.28337 | 11821 ft | 131 kts | 271° |
| 2026-04-29 13:46 | 31.86200 | -107.29404 | 11826 ft | 131 kts | 271° |
| 2026-04-29 13:47 | 31.86289 | -107.30463 | 11823 ft | 131 kts | 271° |
| 2026-04-29 13:47 | 31.86378 | -107.31531 | 11824 ft | 130 kts | 271° |
| 2026-04-29 13:47 | 31.86467 | -107.32590 | 11825 ft | 130 kts | 271° |
| 2026-04-29 13:47 | 31.86557 | -107.33653 | 11827 ft | 130 kts | 271° |
| 2026-04-29 13:48 | 31.86644 | -107.34698 | 11829 ft | 130 kts | 271° |
| 2026-04-29 13:48 | 31.86734 | -107.35770 | 11832 ft | 130 kts | 271° |
| 2026-04-29 13:48 | 31.86821 | -107.36817 | 11834 ft | 130 kts | 271° |
| 2026-04-29 13:48 | 31.86910 | -107.37874 | 11835 ft | 130 kts | 271° |
| 2026-04-29 13:49 | 31.86999 | -107.38937 | 11836 ft | 130 kts | 271° |
| 2026-04-29 13:49 | 31.87087 | -107.39999 | 11839 ft | 130 kts | 272° |
| 2026-04-29 13:49 | 31.87175 | -107.41061 | 11836 ft | 130 kts | 271° |
| 2026-04-29 13:49 | 31.87263 | -107.42114 | 11838 ft | 129 kts | 271° |
| 2026-04-29 13:50 | 31.87350 | -107.43164 | 11840 ft | 129 kts | 271° |
| 2026-04-29 13:50 | 31.87438 | -107.44219 | 11843 ft | 129 kts | 271° |
| 2026-04-29 13:50 | 31.87525 | -107.45268 | 11839 ft | 129 kts | 271° |
| 2026-04-29 13:50 | 31.87612 | -107.46320 | 11843 ft | 129 kts | 271° |
| 2026-04-29 13:51 | 31.87699 | -107.47371 | 11847 ft | 129 kts | 271° |
| 2026-04-29 13:51 | 31.87785 | -107.48407 | 11849 ft | 129 kts | 271° |
| 2026-04-29 13:51 | 31.87871 | -107.49459 | 11847 ft | 129 kts | 271° |
| 2026-04-29 13:51 | 31.87958 | -107.50506 | 11848 ft | 129 kts | 271° |
| 2026-04-29 13:52 | 31.88044 | -107.51554 | 11854 ft | 129 kts | 271° |
| 2026-04-29 13:52 | 31.88131 | -107.52606 | 11855 ft | 129 kts | 271° |
| 2026-04-29 13:52 | 31.88218 | -107.53657 | 11856 ft | 129 kts | 271° |
| 2026-04-29 13:52 | 31.88304 | -107.54710 | 11857 ft | 129 kts | 271° |
| 2026-04-29 13:53 | 31.88390 | -107.55761 | 11855 ft | 129 kts | 271° |
| 2026-04-29 13:53 | 31.88477 | -107.56811 | 11860 ft | 129 kts | 271° |
| 2026-04-29 13:53 | 31.88562 | -107.57863 | 11862 ft | 129 kts | 271° |
| 2026-04-29 13:53 | 31.88648 | -107.58902 | 11863 ft | 129 kts | 271° |
| 2026-04-29 13:54 | 31.88734 | -107.59956 | 11861 ft | 129 kts | 271° |
| 2026-04-29 13:54 | 31.88820 | -107.61005 | 11865 ft | 129 kts | 271° |
| 2026-04-29 13:54 | 31.88906 | -107.62060 | 11866 ft | 129 kts | 271° |
| 2026-04-29 13:54 | 31.88991 | -107.63105 | 11867 ft | 129 kts | 271° |
| 2026-04-29 13:55 | 31.89076 | -107.64155 | 11868 ft | 128 kts | 271° |
| 2026-04-29 13:55 | 31.89161 | -107.65193 | 11868 ft | 127 kts | 271° |
| 2026-04-29 13:55 | 31.89245 | -107.66228 | 11869 ft | 127 kts | 271° |
| 2026-04-29 13:55 | 31.89329 | -107.67266 | 11869 ft | 126 kts | 271° |
| 2026-04-29 13:56 | 31.89413 | -107.68293 | 11869 ft | 126 kts | 271° |
| 2026-04-29 13:56 | 31.89495 | -107.69316 | 11870 ft | 126 kts | 271° |
| 2026-04-29 13:56 | 31.89579 | -107.70344 | 11870 ft | 125 kts | 271° |
| 2026-04-29 13:56 | 31.89662 | -107.71363 | 11864 ft | 124 kts | 271° |
| 2026-04-29 13:57 | 31.89741 | -107.72344 | 11879 ft | 121 kts | 270° |
| 2026-04-29 13:57 | 31.89821 | -107.73347 | 11877 ft | 125 kts | 270° |
| 2026-04-29 13:57 | 31.89904 | -107.74373 | 11868 ft | 125 kts | 270° |
| 2026-04-29 13:57 | 31.89986 | -107.75404 | 11880 ft | 128 kts | 271° |
| 2026-04-29 13:58 | 31.90072 | -107.76450 | 11885 ft | 129 kts | 271° |
| 2026-04-29 13:58 | 31.90155 | -107.77490 | 11880 ft | 130 kts | 271° |
| 2026-04-29 13:58 | 31.90241 | -107.78555 | 11884 ft | 130 kts | 271° |
| 2026-04-29 13:58 | 31.90325 | -107.79609 | 11884 ft | 129 kts | 271° |
| 2026-04-29 13:59 | 31.90409 | -107.80656 | 11879 ft | 131 kts | 271° |
| 2026-04-29 13:59 | 31.90494 | -107.81721 | 11881 ft | 131 kts | 271° |
| 2026-04-29 13:59 | 31.90579 | -107.82785 | 11886 ft | 131 kts | 271° |
| 2026-04-29 13:59 | 31.90664 | -107.83849 | 11885 ft | 130 kts | 271° |
| 2026-04-29 14:00 | 31.90749 | -107.84908 | 11884 ft | 130 kts | 270° |
| 2026-04-29 14:00 | 31.90833 | -107.85967 | 11883 ft | 129 kts | 270° |
| 2026-04-29 14:00 | 31.90916 | -107.87011 | 11883 ft | 129 kts | 270° |
| 2026-04-29 14:00 | 31.91001 | -107.88071 | 11886 ft | 128 kts | 270° |
| 2026-04-29 14:01 | 31.91084 | -107.89113 | 11882 ft | 128 kts | 270° |
| 2026-04-29 14:01 | 31.91166 | -107.90156 | 11881 ft | 128 kts | 270° |
| 2026-04-29 14:01 | 31.91248 | -107.91192 | 11882 ft | 127 kts | 270° |
| 2026-04-29 14:01 | 31.91331 | -107.92235 | 11881 ft | 127 kts | 270° |
| 2026-04-29 14:02 | 31.91413 | -107.93270 | 11880 ft | 127 kts | 270° |
| 2026-04-29 14:02 | 31.91493 | -107.94290 | 11882 ft | 127 kts | 270° |
| 2026-04-29 14:02 | 31.91575 | -107.95321 | 11878 ft | 126 kts | 270° |
| 2026-04-29 14:02 | 31.91656 | -107.96349 | 11882 ft | 127 kts | 270° |
| 2026-04-29 14:03 | 31.91738 | -107.97391 | 11880 ft | 127 kts | 270° |
| 2026-04-29 14:03 | 31.91820 | -107.98431 | 11883 ft | 128 kts | 270° |
| 2026-04-29 14:03 | 31.91902 | -107.99474 | 11883 ft | 128 kts | 270° |
| 2026-04-29 14:03 | 31.91984 | -108.00516 | 11879 ft | 128 kts | 270° |
| 2026-04-29 14:04 | 31.92066 | -108.01558 | 11881 ft | 127 kts | 270° |
| 2026-04-29 14:04 | 31.92147 | -108.02595 | 11881 ft | 127 kts | 270° |
| 2026-04-29 14:04 | 31.92228 | -108.03623 | 11879 ft | 127 kts | 270° |
| 2026-04-29 14:04 | 31.92309 | -108.04664 | 11884 ft | 127 kts | 270° |
| 2026-04-29 14:05 | 31.92389 | -108.05688 | 11883 ft | 127 kts | 270° |
| 2026-04-29 14:05 | 31.92471 | -108.06733 | 11880 ft | 127 kts | 270° |
| 2026-04-29 14:05 | 31.92552 | -108.07765 | 11882 ft | 126 kts | 269° |
| 2026-04-29 14:05 | 31.92630 | -108.08788 | 11887 ft | 126 kts | 270° |
| 2026-04-29 14:06 | 31.92709 | -108.09803 | 11883 ft | 125 kts | 270° |
| 2026-04-29 14:06 | 31.92789 | -108.10831 | 11881 ft | 128 kts | 270° |
| 2026-04-29 14:06 | 31.92869 | -108.11876 | 11889 ft | 129 kts | 270° |
| 2026-04-29 14:06 | 31.92953 | -108.12934 | 11891 ft | 131 kts | 270° |
| 2026-04-29 14:07 | 31.93036 | -108.14000 | 11892 ft | 131 kts | 270° |
| 2026-04-29 14:07 | 31.93119 | -108.15070 | 11893 ft | 131 kts | 270° |
| 2026-04-29 14:07 | 31.93201 | -108.16140 | 11896 ft | 131 kts | 270° |
| 2026-04-29 14:07 | 31.93283 | -108.17207 | 11890 ft | 131 kts | 270° |
| 2026-04-29 14:08 | 31.93366 | -108.18277 | 11887 ft | 131 kts | 270° |
| 2026-04-29 14:08 | 31.93448 | -108.19345 | 11889 ft | 131 kts | 270° |
| 2026-04-29 14:08 | 31.93530 | -108.20401 | 11889 ft | 131 kts | 270° |
| 2026-04-29 14:08 | 31.93612 | -108.21469 | 11892 ft | 131 kts | 270° |
| 2026-04-29 14:09 | 31.93694 | -108.22541 | 11895 ft | 131 kts | 270° |
| 2026-04-29 14:09 | 31.93776 | -108.23612 | 11891 ft | 132 kts | 270° |
| 2026-04-29 14:09 | 31.93858 | -108.24681 | 11891 ft | 131 kts | 270° |
| 2026-04-29 14:09 | 31.93940 | -108.25750 | 11892 ft | 131 kts | 270° |
| 2026-04-29 14:10 | 31.94022 | -108.26824 | 11890 ft | 131 kts | 270° |
| 2026-04-29 14:10 | 31.94103 | -108.27888 | 11893 ft | 131 kts | 270° |
| 2026-04-29 14:10 | 31.94185 | -108.28962 | 11892 ft | 131 kts | 270° |
| 2026-04-29 14:10 | 31.94267 | -108.30036 | 11894 ft | 131 kts | 270° |
| 2026-04-29 14:11 | 31.94348 | -108.31107 | 11892 ft | 132 kts | 270° |
| 2026-04-29 14:11 | 31.94430 | -108.32180 | 11892 ft | 132 kts | 270° |
| 2026-04-29 14:11 | 31.94512 | -108.33253 | 11889 ft | 131 kts | 270° |
| 2026-04-29 14:11 | 31.94593 | -108.34323 | 11888 ft | 131 kts | 270° |
| 2026-04-29 14:12 | 31.94673 | -108.35382 | 11887 ft | 131 kts | 270° |
| 2026-04-29 14:12 | 31.94754 | -108.36450 | 11884 ft | 131 kts | 270° |
| 2026-04-29 14:12 | 31.94834 | -108.37517 | 11887 ft | 130 kts | 270° |
| 2026-04-29 14:12 | 31.94915 | -108.38580 | 11884 ft | 130 kts | 270° |
| 2026-04-29 14:13 | 31.94995 | -108.39642 | 11887 ft | 130 kts | 270° |
| 2026-04-29 14:13 | 31.95075 | -108.40701 | 11888 ft | 130 kts | 270° |
| 2026-04-29 14:13 | 31.95154 | -108.41756 | 11888 ft | 130 kts | 270° |
| 2026-04-29 14:13 | 31.95234 | -108.42811 | 11887 ft | 129 kts | 270° |
| 2026-04-29 14:14 | 31.95312 | -108.43852 | 11889 ft | 130 kts | 269° |
| 2026-04-29 14:14 | 31.95392 | -108.44925 | 11890 ft | 130 kts | 269° |
| 2026-04-29 14:14 | 31.95445 | -108.45632 | 11888 ft | 130 kts | 270° |
| 2026-04-29 14:14 | 31.95551 | -108.47052 | 11889 ft | 131 kts | 270° |
| 2026-04-29 14:15 | 31.95604 | -108.47761 | 11889 ft | 131 kts | 270° |
| 2026-04-29 14:15 | 31.95685 | -108.48832 | 11892 ft | 131 kts | 270° |
| 2026-04-29 14:15 | 31.95765 | -108.49907 | 11890 ft | 132 kts | 269° |
| 2026-04-29 14:15 | 31.95844 | -108.50977 | 11888 ft | 132 kts | 269° |
| 2026-04-29 14:16 | 31.95924 | -108.52054 | 11890 ft | 132 kts | 269° |
| 2026-04-29 14:16 | 31.96005 | -108.53135 | 11890 ft | 132 kts | 269° |
| 2026-04-29 14:16 | 31.96085 | -108.54212 | 11890 ft | 132 kts | 269° |
| 2026-04-29 14:16 | 31.96165 | -108.55276 | 11892 ft | 132 kts | 269° |
| 2026-04-29 14:17 | 31.96244 | -108.56353 | 11893 ft | 132 kts | 269° |
| 2026-04-29 14:17 | 31.96324 | -108.57432 | 11891 ft | 132 kts | 269° |
| 2026-04-29 14:17 | 31.96403 | -108.58511 | 11890 ft | 132 kts | 269° |
| 2026-04-29 14:17 | 31.96483 | -108.59589 | 11891 ft | 132 kts | 269° |
| 2026-04-29 14:18 | 31.96563 | -108.60667 | 11890 ft | 133 kts | 270° |
| 2026-04-29 14:18 | 31.96642 | -108.61749 | 11892 ft | 133 kts | 270° |
| 2026-04-29 14:18 | 31.96722 | -108.62831 | 11891 ft | 132 kts | 270° |
| 2026-04-29 14:18 | 31.96802 | -108.63914 | 11891 ft | 133 kts | 270° |
| 2026-04-29 14:19 | 31.96881 | -108.64997 | 11890 ft | 133 kts | 270° |
| 2026-04-29 14:19 | 31.96960 | -108.66081 | 11889 ft | 134 kts | 270° |
| 2026-04-29 14:19 | 31.97040 | -108.67172 | 11893 ft | 134 kts | 270° |
| 2026-04-29 14:19 | 31.97120 | -108.68258 | 11890 ft | 134 kts | 270° |
| 2026-04-29 14:20 | 31.97201 | -108.69360 | 11889 ft | 133 kts | 270° |
| 2026-04-29 14:20 | 31.97280 | -108.70446 | 11890 ft | 133 kts | 269° |
| 2026-04-29 14:20 | 31.97359 | -108.71533 | 11889 ft | 133 kts | 269° |
| 2026-04-29 14:20 | 31.97438 | -108.72616 | 11887 ft | 133 kts | 269° |
| 2026-04-29 14:21 | 31.97517 | -108.73701 | 11889 ft | 133 kts | 269° |
| 2026-04-29 14:21 | 31.97595 | -108.74784 | 11885 ft | 133 kts | 269° |
| 2026-04-29 14:21 | 31.97674 | -108.75868 | 11886 ft | 132 kts | 269° |
| 2026-04-29 14:21 | 31.97752 | -108.76936 | 11888 ft | 132 kts | 269° |
| 2026-04-29 14:22 | 31.97830 | -108.78019 | 11886 ft | 133 kts | 269° |
| 2026-04-29 14:22 | 31.97908 | -108.79101 | 11888 ft | 133 kts | 269° |
| 2026-04-29 14:22 | 31.97987 | -108.80199 | 11889 ft | 134 kts | 269° |
| 2026-04-29 14:22 | 31.98066 | -108.81290 | 11886 ft | 134 kts | 269° |
| 2026-04-29 14:23 | 31.98145 | -108.82388 | 11886 ft | 134 kts | 269° |
| 2026-04-29 14:23 | 31.98224 | -108.83483 | 11886 ft | 134 kts | 269° |
| 2026-04-29 14:23 | 31.98303 | -108.84581 | 11885 ft | 134 kts | 269° |
| 2026-04-29 14:23 | 31.98380 | -108.85657 | 11888 ft | 134 kts | 269° |
| 2026-04-29 14:24 | 31.98460 | -108.86769 | 11885 ft | 134 kts | 269° |
| 2026-04-29 14:24 | 31.98537 | -108.87852 | 11889 ft | 134 kts | 269° |
| 2026-04-29 14:24 | 31.98616 | -108.88950 | 11885 ft | 135 kts | 269° |
| 2026-04-29 14:24 | 31.98694 | -108.90047 | 11885 ft | 134 kts | 269° |
| 2026-04-29 14:25 | 31.98772 | -108.91142 | 11885 ft | 134 kts | 269° |
| 2026-04-29 14:25 | 31.98850 | -108.92225 | 11882 ft | 133 kts | 270° |
| 2026-04-29 14:25 | 31.98927 | -108.93310 | 11884 ft | 132 kts | 269° |
| 2026-04-29 14:25 | 31.99003 | -108.94382 | 11878 ft | 132 kts | 269° |
| 2026-04-29 14:26 | 31.99080 | -108.95465 | 11874 ft | 132 kts | 269° |
| 2026-04-29 14:26 | 31.99154 | -108.96540 | 11877 ft | 132 kts | 269° |
| 2026-04-29 14:26 | 31.99233 | -108.97624 | 11877 ft | 133 kts | 270° |
| 2026-04-29 14:26 | 31.99310 | -108.98715 | 11881 ft | 134 kts | 270° |
| 2026-04-29 14:27 | 31.99388 | -108.99810 | 11884 ft | 135 kts | 269° |
| 2026-04-29 14:27 | 31.99465 | -109.00913 | 11881 ft | 135 kts | 269° |
| 2026-04-29 14:27 | 31.99543 | -109.02018 | 11882 ft | 135 kts | 269° |
| 2026-04-29 14:28 | 31.99699 | -109.04224 | 11883 ft | 135 kts | 269° |
| 2026-04-29 14:28 | 31.99775 | -109.05315 | 11880 ft | 135 kts | 269° |
| 2026-04-29 14:28 | 31.99853 | -109.06424 | 11881 ft | 134 kts | 269° |
| 2026-04-29 14:28 | 31.99930 | -109.07523 | 11881 ft | 134 kts | 269° |
| 2026-04-29 14:29 | 32.00007 | -109.08621 | 11882 ft | 134 kts | 269° |
| 2026-04-29 14:29 | 32.00083 | -109.09717 | 11882 ft | 134 kts | 269° |
| 2026-04-29 14:29 | 32.00160 | -109.10809 | 11881 ft | 134 kts | 270° |
| 2026-04-29 14:29 | 32.00235 | -109.11894 | 11879 ft | 134 kts | 270° |
| 2026-04-29 14:30 | 32.00312 | -109.12994 | 11879 ft | 134 kts | 270° |
| 2026-04-29 14:30 | 32.00388 | -109.14089 | 11880 ft | 134 kts | 270° |
| 2026-04-29 14:30 | 32.00464 | -109.15185 | 11878 ft | 134 kts | 270° |
| 2026-04-29 14:30 | 32.00540 | -109.16290 | 11877 ft | 134 kts | 270° |
| 2026-04-29 14:31 | 32.00616 | -109.17384 | 11879 ft | 134 kts | 270° |
| 2026-04-29 14:31 | 32.00692 | -109.18483 | 11881 ft | 134 kts | 270° |
| 2026-04-29 14:31 | 32.00768 | -109.19582 | 11876 ft | 135 kts | 270° |
| 2026-04-29 14:31 | 32.00844 | -109.20684 | 11880 ft | 135 kts | 270° |
| 2026-04-29 14:32 | 32.00919 | -109.21785 | 11874 ft | 135 kts | 270° |
| 2026-04-29 14:32 | 32.00996 | -109.22888 | 11877 ft | 136 kts | 270° |
| 2026-04-29 14:32 | 32.01072 | -109.23986 | 11884 ft | 136 kts | 270° |
| 2026-04-29 14:32 | 32.01147 | -109.25112 | 11876 ft | 135 kts | 270° |
| 2026-04-29 14:33 | 32.01222 | -109.26206 | 11873 ft | 134 kts | 272° |
| 2026-04-29 14:33 | 32.01300 | -109.27289 | 11880 ft | 131 kts | 270° |
| 2026-04-29 14:33 | 32.01372 | -109.28370 | 11888 ft | 136 kts | 270° |
| 2026-04-29 14:33 | 32.01447 | -109.29490 | 11884 ft | 137 kts | 270° |
| 2026-04-29 14:34 | 32.01524 | -109.30604 | 11877 ft | 135 kts | 270° |
| 2026-04-29 14:34 | 32.01599 | -109.31691 | 11870 ft | 131 kts | 269° |
| 2026-04-29 14:34 | 32.01670 | -109.32755 | 11876 ft | 130 kts | 270° |
| 2026-04-29 14:34 | 32.01747 | -109.33827 | 11876 ft | 133 kts | 270° |
| 2026-04-29 14:35 | 32.01818 | -109.34921 | 11887 ft | 135 kts | 270° |
| 2026-04-29 14:35 | 32.01892 | -109.36033 | 11882 ft | 136 kts | 270° |
| 2026-04-29 14:35 | 32.01968 | -109.37147 | 11889 ft | 138 kts | 270° |
| 2026-04-29 14:35 | 32.02048 | -109.38268 | 11883 ft | 138 kts | 270° |
| 2026-04-29 14:36 | 32.02120 | -109.39399 | 11883 ft | 138 kts | 270° |
| 2026-04-29 14:36 | 32.02195 | -109.40523 | 11885 ft | 137 kts | 270° |
| 2026-04-29 14:36 | 32.02271 | -109.41642 | 11886 ft | 137 kts | 270° |
| 2026-04-29 14:36 | 32.02347 | -109.42761 | 11885 ft | 137 kts | 270° |
| 2026-04-29 14:37 | 32.02422 | -109.43873 | 11883 ft | 137 kts | 270° |
| 2026-04-29 14:37 | 32.02497 | -109.44993 | 11881 ft | 137 kts | 270° |
| 2026-04-29 14:37 | 32.02571 | -109.46109 | 11882 ft | 136 kts | 270° |
| 2026-04-29 14:37 | 32.02647 | -109.47224 | 11887 ft | 136 kts | 270° |
| 2026-04-29 14:38 | 32.02720 | -109.48335 | 11884 ft | 136 kts | 270° |
| 2026-04-29 14:38 | 32.02794 | -109.49440 | 11880 ft | 136 kts | 270° |
| 2026-04-29 14:38 | 32.02867 | -109.50536 | 11879 ft | 136 kts | 270° |
| 2026-04-29 14:38 | 32.02941 | -109.51642 | 11879 ft | 135 kts | 270° |
| 2026-04-29 14:39 | 32.03014 | -109.52747 | 11880 ft | 135 kts | 270° |
| 2026-04-29 14:39 | 32.03088 | -109.53850 | 11882 ft | 135 kts | 270° |
| 2026-04-29 14:39 | 32.03161 | -109.54954 | 11880 ft | 135 kts | 270° |
| 2026-04-29 14:39 | 32.03233 | -109.56053 | 11879 ft | 135 kts | 270° |
| 2026-04-29 14:40 | 32.03307 | -109.57162 | 11881 ft | 135 kts | 270° |
| 2026-04-29 14:40 | 32.03379 | -109.58263 | 11883 ft | 135 kts | 270° |
| 2026-04-29 14:40 | 32.03452 | -109.59367 | 11883 ft | 135 kts | 270° |
| 2026-04-29 14:40 | 32.03525 | -109.60471 | 11883 ft | 135 kts | 270° |
| 2026-04-29 14:41 | 32.03596 | -109.61560 | 11885 ft | 135 kts | 270° |
| 2026-04-29 14:41 | 32.03669 | -109.62667 | 11885 ft | 135 kts | 270° |
| 2026-04-29 14:41 | 32.03741 | -109.63768 | 11882 ft | 135 kts | 270° |
| 2026-04-29 14:41 | 32.03813 | -109.64874 | 11882 ft | 135 kts | 270° |
| 2026-04-29 14:42 | 32.03886 | -109.65976 | 11883 ft | 135 kts | 270° |
| 2026-04-29 14:42 | 32.03958 | -109.67075 | 11886 ft | 135 kts | 270° |
| 2026-04-29 14:42 | 32.04029 | -109.68183 | 11884 ft | 135 kts | 270° |
| 2026-04-29 14:42 | 32.04102 | -109.69287 | 11889 ft | 135 kts | 270° |
| 2026-04-29 14:43 | 32.04174 | -109.70394 | 11886 ft | 135 kts | 270° |
| 2026-04-29 14:43 | 32.04245 | -109.71490 | 11886 ft | 135 kts | 270° |
| 2026-04-29 14:43 | 32.04317 | -109.72595 | 11888 ft | 135 kts | 270° |
| 2026-04-29 14:43 | 32.04388 | -109.73697 | 11885 ft | 134 kts | 270° |
| 2026-04-29 14:44 | 32.04459 | -109.74792 | 11886 ft | 134 kts | 270° |
| 2026-04-29 14:44 | 32.04530 | -109.75893 | 11889 ft | 135 kts | 270° |
| 2026-04-29 14:44 | 32.04601 | -109.77000 | 11888 ft | 136 kts | 270° |
| 2026-04-29 14:44 | 32.04673 | -109.78108 | 11889 ft | 136 kts | 270° |
| 2026-04-29 14:45 | 32.04744 | -109.79221 | 11891 ft | 136 kts | 270° |
| 2026-04-29 14:45 | 32.04816 | -109.80328 | 11894 ft | 136 kts | 270° |
| 2026-04-29 14:45 | 32.04893 | -109.81524 | 11896 ft | 136 kts | 270° |
| 2026-04-29 14:45 | 32.04958 | -109.82558 | 11893 ft | 136 kts | 270° |
| 2026-04-29 14:46 | 32.05029 | -109.83667 | 11893 ft | 136 kts | 270° |
| 2026-04-29 14:46 | 32.05100 | -109.84770 | 11895 ft | 135 kts | 270° |
| 2026-04-29 14:46 | 32.05170 | -109.85877 | 11897 ft | 135 kts | 270° |
| 2026-04-29 14:46 | 32.05242 | -109.86988 | 11896 ft | 135 kts | 270° |
| 2026-04-29 14:47 | 32.05311 | -109.88088 | 11895 ft | 135 kts | 270° |
| 2026-04-29 14:47 | 32.05380 | -109.89165 | 11895 ft | 135 kts | 270° |
| 2026-04-29 14:47 | 32.05452 | -109.90308 | 11893 ft | 134 kts | 270° |
| 2026-04-29 14:47 | 32.05498 | -109.91033 | 11894 ft | 134 kts | 270° |
| 2026-04-29 14:48 | 32.05590 | -109.92487 | 11895 ft | 134 kts | 270° |
| 2026-04-29 14:48 | 32.05660 | -109.93583 | 11896 ft | 134 kts | 270° |
| 2026-04-29 14:48 | 32.05729 | -109.94680 | 11893 ft | 134 kts | 270° |
| 2026-04-29 14:48 | 32.05798 | -109.95777 | 11897 ft | 134 kts | 270° |
| 2026-04-29 14:49 | 32.05867 | -109.96875 | 11897 ft | 134 kts | 270° |
| 2026-04-29 14:49 | 32.05936 | -109.97976 | 11898 ft | 134 kts | 270° |
| 2026-04-29 14:49 | 32.05982 | -109.98701 | 11894 ft | 134 kts | 270° |
| 2026-04-29 14:49 | 32.06068 | -110.00156 | 11895 ft | 133 kts | 270° |
| 2026-04-29 14:50 | 32.06141 | -110.01247 | 11899 ft | 134 kts | 270° |
| 2026-04-29 14:50 | 32.06211 | -110.02348 | 11900 ft | 135 kts | 270° |
| 2026-04-29 14:50 | 32.06256 | -110.03075 | 11902 ft | 135 kts | 270° |
| 2026-04-29 14:50 | 32.06324 | -110.04177 | 11902 ft | 135 kts | 270° |
| 2026-04-29 14:51 | 32.06394 | -110.05289 | 11905 ft | 136 kts | 270° |
| 2026-04-29 14:51 | 32.06463 | -110.06403 | 11905 ft | 136 kts | 270° |
| 2026-04-29 14:51 | 32.06555 | -110.07881 | 11902 ft | 134 kts | 270° |
| 2026-04-29 14:51 | 32.06624 | -110.08968 | 11900 ft | 135 kts | 270° |
| 2026-04-29 14:52 | 32.06671 | -110.09711 | 11906 ft | 135 kts | 270° |
| 2026-04-29 14:52 | 32.06757 | -110.11180 | 11906 ft | 136 kts | 270° |
| 2026-04-29 14:52 | 32.06805 | -110.11934 | 11908 ft | 136 kts | 270° |
| 2026-04-29 14:52 | 32.06873 | -110.13045 | 11909 ft | 136 kts | 270° |
| 2026-04-29 14:53 | 32.06942 | -110.14167 | 11908 ft | 136 kts | 270° |
| 2026-04-29 14:53 | 32.07033 | -110.15650 | 11908 ft | 139 kts | 270° |
| 2026-04-29 14:53 | 32.07080 | -110.16417 | 11913 ft | 139 kts | 270° |
| 2026-04-29 14:53 | 32.07151 | -110.17555 | 11912 ft | 139 kts | 270° |
| 2026-04-29 14:54 | 32.07220 | -110.18686 | 11914 ft | 138 kts | 270° |
| 2026-04-29 14:54 | 32.07289 | -110.19819 | 11918 ft | 139 kts | 270° |
| 2026-04-29 14:54 | 32.07358 | -110.20939 | 11917 ft | 138 kts | 270° |
| 2026-04-29 14:54 | 32.07427 | -110.22075 | 11916 ft | 138 kts | 270° |
| 2026-04-29 14:55 | 32.07495 | -110.23202 | 11922 ft | 138 kts | 270° |
| 2026-04-29 14:55 | 32.07563 | -110.24328 | 11922 ft | 138 kts | 270° |
| 2026-04-29 14:55 | 32.07632 | -110.25455 | 11924 ft | 137 kts | 270° |
| 2026-04-29 14:55 | 32.07700 | -110.26576 | 11925 ft | 137 kts | 270° |
| 2026-04-29 14:56 | 32.07768 | -110.27699 | 11928 ft | 137 kts | 270° |
| 2026-04-29 14:56 | 32.07835 | -110.28819 | 11928 ft | 137 kts | 270° |
| 2026-04-29 14:56 | 32.07903 | -110.29943 | 11929 ft | 136 kts | 270° |
| 2026-04-29 14:56 | 32.07970 | -110.31059 | 11933 ft | 136 kts | 270° |
| 2026-04-29 14:57 | 32.08037 | -110.32174 | 11930 ft | 137 kts | 270° |
| 2026-04-29 14:57 | 32.08105 | -110.33288 | 11932 ft | 136 kts | 270° |
| 2026-04-29 14:57 | 32.08171 | -110.34405 | 11935 ft | 136 kts | 270° |
| 2026-04-29 14:57 | 32.08238 | -110.35519 | 11932 ft | 136 kts | 270° |
| 2026-04-29 14:58 | 32.08303 | -110.36616 | 11937 ft | 135 kts | 270° |
| 2026-04-29 14:58 | 32.08369 | -110.37732 | 11935 ft | 135 kts | 270° |
| 2026-04-29 14:58 | 32.08435 | -110.38836 | 11941 ft | 135 kts | 270° |
| 2026-04-29 14:58 | 32.08502 | -110.39937 | 11944 ft | 135 kts | 270° |
| 2026-04-29 14:59 | 32.08567 | -110.41034 | 12040 ft | 129 kts | 270° |
| 2026-04-29 14:59 | 32.08629 | -110.42083 | 12110 ft | 137 kts | 269° |
| 2026-04-29 14:59 | 32.08700 | -110.43273 | 11977 ft | 149 kts | 270° |
| 2026-04-29 14:59 | 32.08768 | -110.44506 | 11867 ft | 152 kts | 270° |
| 2026-04-29 15:00 | 32.08842 | -110.45735 | 11753 ft | 154 kts | 270° |
| 2026-04-29 15:00 | 32.08919 | -110.46999 | 11630 ft | 153 kts | 270° |
| 2026-04-29 15:00 | 32.08992 | -110.48239 | 11520 ft | 152 kts | 271° |
| 2026-04-29 15:00 | 32.09065 | -110.49503 | 11404 ft | 157 kts | 271° |
| 2026-04-29 15:01 | 32.09143 | -110.50804 | 11291 ft | 159 kts | 271° |
| 2026-04-29 15:01 | 32.09218 | -110.52114 | 11184 ft | 162 kts | 271° |
| 2026-04-29 15:01 | 32.09296 | -110.53442 | 11072 ft | 163 kts | 271° |
| 2026-04-29 15:01 | 32.09377 | -110.54783 | 10960 ft | 165 kts | 271° |
| 2026-04-29 15:02 | 32.09435 | -110.55787 | 10868 ft | 166 kts | 271° |
| 2026-04-29 15:02 | 32.09514 | -110.57165 | 10648 ft | 172 kts | 271° |
| 2026-04-29 15:02 | 32.09595 | -110.58588 | 10420 ft | 175 kts | 271° |
| 2026-04-29 15:02 | 32.09679 | -110.60031 | 10189 ft | 176 kts | 272° |
| 2026-04-29 15:03 | 32.09763 | -110.61458 | 10009 ft | 176 kts | 272° |
| 2026-04-29 15:03 | 32.09845 | -110.62850 | 10006 ft | 167 kts | 272° |
| 2026-04-29 15:03 | 32.09922 | -110.64200 | 10001 ft | 161 kts | 272° |
| 2026-04-29 15:03 | 32.09996 | -110.65500 | 10004 ft | 157 kts | 271° |
| 2026-04-29 15:04 | 32.10283 | -110.66712 | 10002 ft | 159 kts | 301° |
| 2026-04-29 15:04 | 32.11131 | -110.67594 | 10005 ft | 163 kts | 316° |
| 2026-04-29 15:04 | 32.12033 | -110.68403 | 10007 ft | 162 kts | 316° |
| 2026-04-29 15:04 | 32.12951 | -110.69234 | 9787 ft | 174 kts | 316° |
| 2026-04-29 15:05 | 32.13929 | -110.70141 | 9582 ft | 179 kts | 316° |
| 2026-04-29 15:05 | 32.14888 | -110.71084 | 9391 ft | 182 kts | 314° |
| 2026-04-29 15:05 | 32.15852 | -110.72073 | 9192 ft | 184 kts | 314° |
| 2026-04-29 15:05 | 32.16812 | -110.73069 | 8997 ft | 185 kts | 314° |
| 2026-04-29 15:06 | 32.17770 | -110.74074 | 8797 ft | 186 kts | 314° |
| 2026-04-29 15:06 | 32.18748 | -110.75111 | 8599 ft | 187 kts | 314° |
| 2026-04-29 15:06 | 32.19697 | -110.76127 | 8404 ft | 187 kts | 314° |
| 2026-04-29 15:06 | 32.20672 | -110.77180 | 8207 ft | 188 kts | 314° |
| 2026-04-29 15:07 | 32.21623 | -110.78215 | 8015 ft | 188 kts | 314° |
| 2026-04-29 15:07 | 32.22596 | -110.79284 | 7770 ft | 190 kts | 314° |
| 2026-04-29 15:07 | 32.23549 | -110.80342 | 7538 ft | 192 kts | 314° |
| 2026-04-29 15:07 | 32.24519 | -110.81432 | 7303 ft | 193 kts | 314° |
| 2026-04-29 15:08 | 32.25504 | -110.82552 | 7063 ft | 194 kts | 314° |
| 2026-04-29 15:08 | 32.26435 | -110.83618 | 7027 ft | 185 kts | 314° |
| 2026-04-29 15:08 | 32.27358 | -110.84678 | 7016 ft | 179 kts | 314° |
| 2026-04-29 15:08 | 32.28245 | -110.85697 | 6908 ft | 181 kts | 314° |
| 2026-04-29 15:09 | 32.29164 | -110.86754 | 6777 ft | 182 kts | 314° |
| 2026-04-29 15:09 | 32.30067 | -110.87796 | 6663 ft | 183 kts | 314° |
| 2026-04-29 15:09 | 32.30963 | -110.88835 | 6544 ft | 183 kts | 314° |
| 2026-04-29 15:09 | 32.31880 | -110.89899 | 6425 ft | 184 kts | 314° |
| 2026-04-29 15:10 | 32.32778 | -110.90962 | 6296 ft | 184 kts | 309° |
| 2026-04-29 15:10 | 32.33219 | -110.92362 | 6160 ft | 183 kts | 269° |
| 2026-04-29 15:10 | 32.32774 | -110.93753 | 6026 ft | 182 kts | 233° |
| 2026-04-29 15:10 | 32.31976 | -110.94864 | 6005 ft | 177 kts | 229° |
| 2026-04-29 15:11 | 32.31182 | -110.95941 | 6002 ft | 173 kts | 229° |
| 2026-04-29 15:11 | 32.30368 | -110.97039 | 5866 ft | 178 kts | 229° |
| 2026-04-29 15:11 | 32.29531 | -110.98164 | 5618 ft | 186 kts | 229° |
| 2026-04-29 15:11 | 32.28669 | -110.99320 | 5372 ft | 190 kts | 229° |
| 2026-04-29 15:12 | 32.27789 | -111.00497 | 5136 ft | 193 kts | 229° |
| 2026-04-29 15:12 | 32.27196 | -111.01288 | 5006 ft | 192 kts | 229° |
| 2026-04-29 15:12 | 32.25778 | -111.02424 | 4994 ft | 182 kts | 202° |
| 2026-04-29 15:12 | 32.24571 | -111.02823 | 4984 ft | 178 kts | 190° |
| 2026-04-29 15:13 | 32.23369 | -111.02946 | 4988 ft | 175 kts | 180° |
| 2026-04-29 15:13 | 32.22139 | -111.02860 | 4993 ft | 174 kts | 172° |
| 2026-04-29 15:13 | 32.20968 | -111.02535 | 4994 ft | 173 kts | 163° |
| 2026-04-29 15:13 | 32.19801 | -111.02131 | 4831 ft | 172 kts | 163° |
| 2026-04-29 15:14 | 32.18708 | -111.01761 | 4579 ft | 156 kts | 163° |
| 2026-04-29 15:14 | 32.17813 | -111.01194 | 4316 ft | 142 kts | 134° |
| 2026-04-29 15:14 | 32.17135 | -111.00414 | 4045 ft | 130 kts | 136° |
| 2026-04-29 15:14 | 32.16517 | -110.99714 | 3816 ft | 116 kts | 135° |
| 2026-04-29 15:15 | 32.16000 | -110.99105 | 3680 ft | 97 kts | 134° |
| 2026-04-29 15:15 | 32.15533 | -110.98548 | 3564 ft | 97 kts | 136° |
| 2026-04-29 15:15 | 32.15039 | -110.97969 | 3438 ft | 102 kts | 135° |
| 2026-04-29 15:15 | 32.14525 | -110.97364 | 3294 ft | 103 kts | 135° |
| 2026-04-29 15:16 | 32.14025 | -110.96775 | 3143 ft | 101 kts | 135° |
| 2026-04-29 15:16 | 32.13514 | -110.96178 | 2991 ft | 101 kts | 138° |
| 2026-04-29 15:16 | 32.13032 | -110.95610 | 2864 ft | 100 kts | 136° |
| 2026-04-29 15:16 | 32.12530 | -110.95033 | 2702 ft | 98 kts | 136° |
| 2026-04-29 15:17 | 32.12093 | -110.94496 | 2594 ft | 79 kts | 135° |
| 2026-04-29 15:17 | 32.11760 | -110.94114 | 2590 ft | 56 kts | 135° |
| 2026-04-29 15:17 | 32.11521 | -110.93831 | 2599 ft | 41 kts | 136° |
| 2026-04-29 15:17 | 32.11442 | -110.93676 | 2603 ft | 19 kts | 39° |
| 2026-04-29 15:18 | 32.11554 | -110.93628 | 2599 ft | 19 kts | 317° |
| 2026-04-29 15:18 | 32.11653 | -110.93741 | 2595 ft | 21 kts | 313° |
| 2026-04-29 15:18 | 32.11763 | -110.93875 | 2590 ft | 24 kts | 316° |
| 2026-04-29 15:18 | 32.11897 | -110.94033 | 2587 ft | 31 kts | 314° |
| 2026-04-29 15:19 | 32.12062 | -110.94218 | 2584 ft | 32 kts | 313° |
| 2026-04-29 15:19 | 32.12202 | -110.94360 | 2578 ft | 17 kts | 6° |
| 2026-04-29 15:19 | 32.12269 | -110.94297 | 2577 ft | 9 kts | 49° |
| 2026-04-29 15:19 | 32.12273 | -110.94288 | 2578 ft | 2 kts | 83° |
| 2026-04-29 15:20 | 32.12273 | -110.94281 | 2574 ft | 0 kts | 109° |
| 2026-04-29 15:20 | 32.12272 | -110.94278 | 2578 ft | 0 kts | 105° |
| 2026-04-29 15:20 | 32.12272 | -110.94277 | 2578 ft | 0 kts | 101° |
| 2026-04-29 15:20 | 32.12270 | -110.94270 | 2579 ft | 0 kts | 106° |